sensor_id;sensor_type;location;lat;lon;timestamp;pressure;altitude;pressure_sealevel;temperature;humidity
7990;BME280;4040;42.848;23.034;2022-10-16T00:05:11;95583.16;;;5.71;100.00
7990;BME280;4040;42.848;23.034;2022-10-16T00:11:03;95579.16;;;5.61;100.00
7990;BME280;4040;42.848;23.034;2022-10-16T00:16:52;95588.22;;;5.57;100.00
7990;BME280;4040;42.848;23.034;2022-10-16T00:22:41;95599.66;;;5.57;100.00
7990;BME280;4040;42.848;23.034;2022-10-16T00:28:31;95599.13;;;5.48;100.00
7990;BME280;4040;42.848;23.034;2022-10-16T00:34:20;95598.44;;;5.36;100.00
7990;BME280;4040;42.848;23.034;2022-10-16T00:40:10;95600.44;;;5.23;100.00
7990;BME280;4040;42.848;23.034;2022-10-16T00:46:01;95597.19;;;5.14;100.00
7990;BME280;4040;42.848;23.034;2022-10-16T00:51:51;95598.59;;;5.08;100.00
7990;BME280;4040;42.848;23.034;2022-10-16T00:57:41;95608.56;;;5.11;100.00
7990;BME280;4040;42.848;23.034;2022-10-16T01:03:34;95616.00;;;5.02;100.00
7990;BME280;4040;42.848;23.034;2022-10-16T01:09:27;95581.91;;;4.96;100.00
7990;BME280;4040;42.848;23.034;2022-10-16T01:15:25;95595.34;;;4.99;100.00
7990;BME280;4040;42.848;23.034;2022-10-16T01:21:19;95577.06;;;5.01;100.00
7990;BME280;4040;42.848;23.034;2022-10-16T01:27:14;95587.22;;;5.11;100.00
7990;BME280;4040;42.848;23.034;2022-10-16T01:33:08;95596.34;;;5.10;100.00
7990;BME280;4040;42.848;23.034;2022-10-16T01:39:01;95604.78;;;5.12;100.00
7990;BME280;4040;42.848;23.034;2022-10-16T01:44:52;95607.38;;;4.93;100.00
7990;BME280;4040;42.848;23.034;2022-10-16T01:50:44;95604.81;;;4.82;100.00
7990;BME280;4040;42.848;23.034;2022-10-16T01:56:33;95620.66;;;4.75;100.00
7990;BME280;4040;42.848;23.034;2022-10-16T02:02:26;95629.09;;;4.77;100.00
7990;BME280;4040;42.848;23.034;2022-10-16T02:12:23;95626.16;;;4.82;100.00
7990;BME280;4040;42.848;23.034;2022-10-16T02:18:16;95634.25;;;4.70;100.00
7990;BME280;4040;42.848;23.034;2022-10-16T02:24:09;95629.09;;;4.77;100.00
7990;BME280;4040;42.848;23.034;2022-10-16T02:30:03;95637.34;;;4.72;100.00
7990;BME280;4040;42.848;23.034;2022-10-16T02:35:57;95640.94;;;4.64;100.00
7990;BME280;4040;42.848;23.034;2022-10-16T02:41:46;95650.16;;;4.51;100.00
7990;BME280;4040;42.848;23.034;2022-10-16T02:47:35;95650.41;;;4.46;100.00
7990;BME280;4040;42.848;23.034;2022-10-16T02:53:26;95661.84;;;4.46;100.00
7990;BME280;4040;42.848;23.034;2022-10-16T02:59:14;95650.28;;;4.27;100.00
7990;BME280;4040;42.848;23.034;2022-10-16T03:05:04;95651.75;;;4.40;100.00
7990;BME280;4040;42.848;23.034;2022-10-16T03:15:17;95636.69;;;4.32;100.00
7990;BME280;4040;42.848;23.034;2022-10-16T03:21:05;95662.44;;;4.40;100.00
7990;BME280;4040;42.848;23.034;2022-10-16T03:26:53;95674.00;;;4.32;100.00
7990;BME280;4040;42.848;23.034;2022-10-16T03:32:45;95672.22;;;4.36;100.00
7990;BME280;4040;42.848;23.034;2022-10-16T03:38:33;95680.28;;;4.24;100.00
7990;BME280;4040;42.848;23.034;2022-10-16T03:44:22;95682.84;;;3.93;100.00
7990;BME280;4040;42.848;23.034;2022-10-16T03:50:12;95683.25;;;3.67;100.00
7990;BME280;4040;42.848;23.034;2022-10-16T03:56:01;95673.81;;;3.58;100.00
7990;BME280;4040;42.848;23.034;2022-10-16T04:01:49;95675.56;;;3.66;100.00
7990;BME280;4040;42.848;23.034;2022-10-16T04:07:39;95674.13;;;3.68;100.00
7990;BME280;4040;42.848;23.034;2022-10-16T04:17:51;95665.78;;;3.82;100.00
7990;BME280;4040;42.848;23.034;2022-10-16T04:23:41;95672.41;;;3.88;100.00
7990;BME280;4040;42.848;23.034;2022-10-16T04:29:30;95677.72;;;3.88;100.00
7990;BME280;4040;42.848;23.034;2022-10-16T04:35:19;95686.84;;;3.87;100.00
7990;BME280;4040;42.848;23.034;2022-10-16T04:41:09;95688.97;;;3.81;100.00
7990;BME280;4040;42.848;23.034;2022-10-16T04:46:58;95694.19;;;3.78;100.00
7990;BME280;4040;42.848;23.034;2022-10-16T04:52:47;95699.31;;;3.83;100.00
7990;BME280;4040;42.848;23.034;2022-10-16T04:58:37;95695.69;;;4.03;100.00
7990;BME280;4040;42.848;23.034;2022-10-16T05:04:25;95696.13;;;4.05;100.00
7990;BME280;4040;42.848;23.034;2022-10-16T05:10:13;95701.84;;;4.19;100.00
7990;BME280;4040;42.848;23.034;2022-10-16T05:20:26;95704.50;;;4.46;100.00
7990;BME280;4040;42.848;23.034;2022-10-16T05:26:14;95711.56;;;5.43;100.00
7990;BME280;4040;42.848;23.034;2022-10-16T05:32:03;95718.81;;;7.55;100.00
7990;BME280;4040;42.848;23.034;2022-10-16T05:37:54;95708.22;;;9.13;100.00
7990;BME280;4040;42.848;23.034;2022-10-16T05:43:42;95705.53;;;10.13;100.00
7990;BME280;4040;42.848;23.034;2022-10-16T05:49:31;95705.41;;;10.64;100.00
7990;BME280;4040;42.848;23.034;2022-10-16T05:55:21;95714.97;;;12.85;100.00
7990;BME280;4040;42.848;23.034;2022-10-16T06:01:11;95710.84;;;13.89;86.90
7990;BME280;4040;42.848;23.034;2022-10-16T06:07:00;95716.75;;;14.55;82.55
7990;BME280;4040;42.848;23.034;2022-10-16T06:12:51;95729.03;;;15.29;75.01
7990;BME280;4040;42.848;23.034;2022-10-16T06:23:01;95737.09;;;18.64;60.80
7990;BME280;4040;42.848;23.034;2022-10-16T06:28:53;95732.88;;;17.12;60.79
7990;BME280;4040;42.848;23.034;2022-10-16T06:34:42;95754.97;;;17.34;64.19
7990;BME280;4040;42.848;23.034;2022-10-16T06:40:31;95735.34;;;19.39;57.32
7990;BME280;4040;42.848;23.034;2022-10-16T06:46:23;95728.06;;;22.04;51.57
7990;BME280;4040;42.848;23.034;2022-10-16T06:51:53;95739.34;;;23.95;46.52
7990;BME280;4040;42.848;23.034;2022-10-16T06:57:42;95748.91;;;25.26;40.90
7990;BME280;4040;42.848;23.034;2022-10-16T07:03:32;95753.91;;;25.13;41.96
7990;BME280;4040;42.848;23.034;2022-10-16T07:09:21;95763.41;;;24.18;43.87
7990;BME280;4040;42.848;23.034;2022-10-16T07:15:10;95762.06;;;25.07;40.93
7990;BME280;4040;42.848;23.034;2022-10-16T07:25:13;95771.50;;;25.97;40.20
7990;BME280;4040;42.848;23.034;2022-10-16T07:31:02;95759.31;;;26.52;39.52
7990;BME280;4040;42.848;23.034;2022-10-16T07:36:51;95767.16;;;28.15;37.32
7990;BME280;4040;42.848;23.034;2022-10-16T07:42:41;95763.22;;;27.96;36.07
7990;BME280;4040;42.848;23.034;2022-10-16T07:48:32;95767.72;;;27.94;34.65
7990;BME280;4040;42.848;23.034;2022-10-16T07:54:21;95774.16;;;26.74;36.23
7990;BME280;4040;42.848;23.034;2022-10-16T08:00:13;95769.59;;;27.77;35.17
7990;BME280;4040;42.848;23.034;2022-10-16T08:06:02;95780.53;;;27.40;35.45
7990;BME280;4040;42.848;23.034;2022-10-16T08:11:52;95774.66;;;27.58;35.00
7990;BME280;4040;42.848;23.034;2022-10-16T08:17:42;95751.81;;;28.20;34.59
7990;BME280;4040;42.848;23.034;2022-10-16T08:27:52;95770.16;;;27.35;33.80
7990;BME280;4040;42.848;23.034;2022-10-16T08:33:44;95773.34;;;26.68;34.42
7990;BME280;4040;42.848;23.034;2022-10-16T08:39:34;95777.31;;;25.99;36.35
7990;BME280;4040;42.848;23.034;2022-10-16T08:45:32;95720.25;;;28.06;34.16
7990;BME280;4040;42.848;23.034;2022-10-16T08:51:26;95782.09;;;29.82;31.37
7990;BME280;4040;42.848;23.034;2022-10-16T08:57:19;95758.94;;;27.44;33.03
7990;BME280;4040;42.848;23.034;2022-10-16T09:03:14;95775.09;;;28.02;32.93
7990;BME280;4040;42.848;23.034;2022-10-16T09:09:24;95745.19;;;27.30;32.89
7990;BME280;4040;42.848;23.034;2022-10-16T09:15:26;95782.41;;;26.89;35.08
7990;BME280;4040;42.848;23.034;2022-10-16T09:21:21;95777.28;;;29.02;31.57
7990;BME280;4040;42.848;23.034;2022-10-16T09:27:14;95764.69;;;30.31;30.41
7990;BME280;4040;42.848;23.034;2022-10-16T09:33:04;95774.50;;;27.67;32.19
7990;BME280;4040;42.848;23.034;2022-10-16T09:39:03;95764.09;;;28.86;31.04
7990;BME280;4040;42.848;23.034;2022-10-16T09:44:54;95772.81;;;28.01;32.00
7990;BME280;4040;42.848;23.034;2022-10-16T09:50:42;95758.84;;;28.94;31.33
7990;BME280;4040;42.848;23.034;2022-10-16T09:56:33;95751.25;;;29.58;30.58
7990;BME280;4040;42.848;23.034;2022-10-16T10:02:29;95758.84;;;26.93;33.21
7990;BME280;4040;42.848;23.034;2022-10-16T10:08:19;95756.06;;;26.19;34.79
7990;BME280;4040;42.848;23.034;2022-10-16T10:14:17;95746.69;;;27.76;33.14
7990;BME280;4040;42.848;23.034;2022-10-16T10:20:22;95733.47;;;28.22;31.12
7990;BME280;4040;42.848;23.034;2022-10-16T10:30:38;95722.41;;;29.39;30.39
7990;BME280;4040;42.848;23.034;2022-10-16T10:36:34;95715.09;;;27.94;32.22
7990;BME280;4040;42.848;23.034;2022-10-16T10:42:29;95709.66;;;26.43;32.42
7990;BME280;4040;42.848;23.034;2022-10-16T10:48:41;95710.72;;;26.85;33.03
7990;BME280;4040;42.848;23.034;2022-10-16T10:54:44;95697.16;;;27.07;32.04
7990;BME280;4040;42.848;23.034;2022-10-16T11:00:44;95701.63;;;26.59;33.33
7990;BME280;4040;42.848;23.034;2022-10-16T11:06:40;95683.69;;;27.97;32.47
7990;BME280;4040;42.848;23.034;2022-10-16T11:12:35;95688.78;;;25.01;35.29
7990;BME280;4040;42.848;23.034;2022-10-16T11:18:27;95679.41;;;25.22;35.65
7990;BME280;4040;42.848;23.034;2022-10-16T11:24:21;95681.94;;;24.58;35.88
7990;BME280;4040;42.848;23.034;2022-10-16T11:30:16;95679.34;;;24.55;36.25
7990;BME280;4040;42.848;23.034;2022-10-16T11:36:12;95672.69;;;23.91;36.68
7990;BME280;4040;42.848;23.034;2022-10-16T11:42:07;95682.41;;;23.18;38.67
7990;BME280;4040;42.848;23.034;2022-10-16T11:48:04;95674.81;;;22.59;40.40
7990;BME280;4040;42.848;23.034;2022-10-16T11:54:01;95673.91;;;20.19;45.05
7990;BME280;4040;42.848;23.034;2022-10-16T11:59:55;95680.41;;;19.62;45.18
7990;BME280;4040;42.848;23.034;2022-10-16T12:06:10;95678.84;;;19.24;47.03
7990;BME280;4040;42.848;23.034;2022-10-16T12:12:00;95672.66;;;19.07;47.15
7990;BME280;4040;42.848;23.034;2022-10-16T12:17:49;95667.09;;;19.11;46.61
7990;BME280;4040;42.848;23.034;2022-10-16T12:23:49;95669.84;;;18.70;48.02
7990;BME280;4040;42.848;23.034;2022-10-16T12:29:39;95669.47;;;18.84;47.06
7990;BME280;4040;42.848;23.034;2022-10-16T12:35:32;95669.63;;;18.93;45.25
7990;BME280;4040;42.848;23.034;2022-10-16T12:41:29;95663.72;;;19.07;44.56
7990;BME280;4040;42.848;23.034;2022-10-16T12:47:20;95665.59;;;19.10;43.15
7990;BME280;4040;42.848;23.034;2022-10-16T12:53:19;95648.28;;;18.88;43.55
7990;BME280;4040;42.848;23.034;2022-10-16T12:59:17;95660.53;;;18.96;43.39
7990;BME280;4040;42.848;23.034;2022-10-16T13:05:21;95631.31;;;18.68;43.93
7990;BME280;4040;42.848;23.034;2022-10-16T13:11:20;95675.84;;;19.06;42.30
7990;BME280;4040;42.848;23.034;2022-10-16T13:17:18;95664.22;;;18.77;42.57
7990;BME280;4040;42.848;23.034;2022-10-16T13:23:17;95685.03;;;19.12;39.73
7990;BME280;4040;42.848;23.034;2022-10-16T13:33:37;95679.78;;;19.05;41.07
7990;BME280;4040;42.848;23.034;2022-10-16T13:39:29;95676.66;;;19.19;42.46
7990;BME280;4040;42.848;23.034;2022-10-16T13:45:19;95684.28;;;19.11;43.44
7990;BME280;4040;42.848;23.034;2022-10-16T13:51:14;95682.47;;;18.92;42.57
7990;BME280;4040;42.848;23.034;2022-10-16T13:57:22;95686.97;;;18.99;42.41
7990;BME280;4040;42.848;23.034;2022-10-16T14:03:14;95665.84;;;18.46;41.76
7990;BME280;4040;42.848;23.034;2022-10-16T14:09:11;95698.75;;;18.39;41.45
7990;BME280;4040;42.848;23.034;2022-10-16T14:15:02;95704.06;;;18.30;42.42
7990;BME280;4040;42.848;23.034;2022-10-16T14:20:51;95706.38;;;18.31;42.60
7990;BME280;4040;42.848;23.034;2022-10-16T14:26:43;95685.84;;;17.95;41.91
7990;BME280;4040;42.848;23.034;2022-10-16T14:32:32;95710.78;;;17.93;42.88
7990;BME280;4040;42.848;23.034;2022-10-16T14:38:20;95716.94;;;17.82;43.24
7990;BME280;4040;42.848;23.034;2022-10-16T14:44:12;95720.94;;;17.61;43.01
7990;BME280;4040;42.848;23.034;2022-10-16T14:50:01;95722.16;;;17.41;43.39
7990;BME280;4040;42.848;23.034;2022-10-16T14:55:50;95735.66;;;17.28;44.19
7990;BME280;4040;42.848;23.034;2022-10-16T15:01:42;95742.34;;;17.04;44.51
7990;BME280;4040;42.848;23.034;2022-10-16T15:07:31;95735.97;;;16.75;44.75
7990;BME280;4040;42.848;23.034;2022-10-16T15:13:20;95744.72;;;16.63;45.06
7990;BME280;4040;42.848;23.034;2022-10-16T15:19:10;95744.28;;;16.45;45.36
7990;BME280;4040;42.848;23.034;2022-10-16T15:24:58;95751.72;;;16.18;45.63
7990;BME280;4040;42.848;23.034;2022-10-16T15:34:30;95750.41;;;15.80;46.86
7990;BME280;4040;42.848;23.034;2022-10-16T15:40:20;95762.34;;;15.60;47.91
7990;BME280;4040;42.848;23.034;2022-10-16T15:46:11;95769.63;;;15.40;47.69
7990;BME280;4040;42.848;23.034;2022-10-16T15:52:03;95776.03;;;15.23;48.10
7990;BME280;4040;42.848;23.034;2022-10-16T15:58:01;95791.44;;;15.00;48.39
7990;BME280;4040;42.848;23.034;2022-10-16T16:03:52;95799.34;;;14.84;49.79
7990;BME280;4040;42.848;23.034;2022-10-16T16:09:43;95799.66;;;14.56;49.61
7990;BME280;4040;42.848;23.034;2022-10-16T16:15:32;95815.19;;;14.48;51.97
7990;BME280;4040;42.848;23.034;2022-10-16T16:21:21;95820.19;;;14.06;53.39
7990;BME280;4040;42.848;23.034;2022-10-16T16:27:11;95834.59;;;13.96;52.87
7990;BME280;4040;42.848;23.034;2022-10-16T16:37:12;95842.47;;;13.73;54.07
7990;BME280;4040;42.848;23.034;2022-10-16T16:43:03;95854.28;;;13.31;56.61
7990;BME280;4040;42.848;23.034;2022-10-16T16:48:51;95864.72;;;13.29;57.65
7990;BME280;4040;42.848;23.034;2022-10-16T16:54:42;95873.25;;;13.21;58.66
7990;BME280;4040;42.848;23.034;2022-10-16T17:00:46;95891.03;;;13.15;59.71
7990;BME280;4040;42.848;23.034;2022-10-16T17:06:34;95885.31;;;12.99;60.85
7990;BME280;4040;42.848;23.034;2022-10-16T17:12:23;95892.59;;;13.12;61.90
7990;BME280;4040;42.848;23.034;2022-10-16T17:18:14;95886.44;;;13.08;64.22
7990;BME280;4040;42.848;23.034;2022-10-16T17:24:03;95888.78;;;12.96;65.28
7990;BME280;4040;42.848;23.034;2022-10-16T17:29:52;95909.22;;;13.11;65.46
7990;BME280;4040;42.848;23.034;2022-10-16T17:40:04;95911.94;;;12.90;68.87
7990;BME280;4040;42.848;23.034;2022-10-16T17:45:53;95878.75;;;12.68;73.04
7990;BME280;4040;42.848;23.034;2022-10-16T17:51:42;95915.06;;;12.50;79.58
7990;BME280;4040;42.848;23.034;2022-10-16T17:57:32;95915.44;;;12.31;89.47
7990;BME280;4040;42.848;23.034;2022-10-16T18:03:21;95933.41;;;11.61;94.11
7990;BME280;4040;42.848;23.034;2022-10-16T18:09:11;95939.34;;;11.12;100.00
7990;BME280;4040;42.848;23.034;2022-10-16T18:15:03;95946.00;;;10.71;100.00
7990;BME280;4040;42.848;23.034;2022-10-16T18:20:55;95956.03;;;10.27;100.00
7990;BME280;4040;42.848;23.034;2022-10-16T18:26:44;95971.72;;;9.86;100.00
7990;BME280;4040;42.848;23.034;2022-10-16T18:32:34;95975.72;;;9.66;100.00
7990;BME280;4040;42.848;23.034;2022-10-16T18:42:45;95986.03;;;9.31;100.00
7990;BME280;4040;42.848;23.034;2022-10-16T18:48:38;95987.84;;;9.23;100.00
7990;BME280;4040;42.848;23.034;2022-10-16T18:54:27;95995.25;;;9.04;100.00
7990;BME280;4040;42.848;23.034;2022-10-16T19:00:16;95998.25;;;8.73;100.00
7990;BME280;4040;42.848;23.034;2022-10-16T19:06:08;96015.06;;;8.70;100.00
7990;BME280;4040;42.848;23.034;2022-10-16T19:11:57;96029.28;;;8.48;100.00
7990;BME280;4040;42.848;23.034;2022-10-16T19:17:46;96039.38;;;8.13;100.00
7990;BME280;4040;42.848;23.034;2022-10-16T19:23:37;96052.78;;;7.94;100.00
7990;BME280;4040;42.848;23.034;2022-10-16T19:29:26;96047.16;;;7.80;100.00
7990;BME280;4040;42.848;23.034;2022-10-16T19:35:16;96047.88;;;7.77;100.00
7990;BME280;4040;42.848;23.034;2022-10-16T19:45:29;96063.50;;;7.75;100.00
7990;BME280;4040;42.848;23.034;2022-10-16T19:51:18;96069.31;;;7.77;100.00
7990;BME280;4040;42.848;23.034;2022-10-16T19:57:07;96089.75;;;7.66;100.00
7990;BME280;4040;42.848;23.034;2022-10-16T20:02:57;96090.88;;;7.46;100.00
7990;BME280;4040;42.848;23.034;2022-10-16T20:08:47;96099.88;;;7.38;100.00
7990;BME280;4040;42.848;23.034;2022-10-16T20:14:37;96094.34;;;7.31;100.00
7990;BME280;4040;42.848;23.034;2022-10-16T20:20:27;96098.78;;;7.24;100.00
7990;BME280;4040;42.848;23.034;2022-10-16T20:26:17;96102.41;;;7.16;100.00
7990;BME280;4040;42.848;23.034;2022-10-16T20:32:06;96106.13;;;7.11;100.00
7990;BME280;4040;42.848;23.034;2022-10-16T20:37:56;96107.69;;;7.12;100.00
7990;BME280;4040;42.848;23.034;2022-10-16T20:48:07;96113.47;;;6.99;100.00
7990;BME280;4040;42.848;23.034;2022-10-16T20:54:00;96115.41;;;6.98;100.00
7990;BME280;4040;42.848;23.034;2022-10-16T20:59:49;96119.28;;;6.85;100.00
7990;BME280;4040;42.848;23.034;2022-10-16T21:05:41;96109.34;;;6.70;100.00
7990;BME280;4040;42.848;23.034;2022-10-16T21:11:33;96119.03;;;6.75;100.00
7990;BME280;4040;42.848;23.034;2022-10-16T21:17:22;96125.84;;;6.72;100.00
7990;BME280;4040;42.848;23.034;2022-10-16T21:23:11;96123.00;;;6.65;100.00
7990;BME280;4040;42.848;23.034;2022-10-16T21:29:03;96124.63;;;6.54;100.00
7990;BME280;4040;42.848;23.034;2022-10-16T21:34:52;96132.78;;;6.46;100.00
7990;BME280;4040;42.848;23.034;2022-10-16T21:40:40;96138.16;;;6.18;100.00
7990;BME280;4040;42.848;23.034;2022-10-16T21:50:52;96146.00;;;6.11;100.00
7990;BME280;4040;42.848;23.034;2022-10-16T21:56:41;96113.31;;;5.78;100.00
7990;BME280;4040;42.848;23.034;2022-10-16T22:08:39;96159.59;;;5.79;100.00
7990;BME280;4040;42.848;23.034;2022-10-16T22:14:28;96167.81;;;5.86;100.00
7990;BME280;4040;42.848;23.034;2022-10-16T22:20:16;96169.81;;;5.77;100.00
7990;BME280;4040;42.848;23.034;2022-10-16T22:26:08;96168.56;;;5.74;100.00
7990;BME280;4040;42.848;23.034;2022-10-16T22:31:57;96172.03;;;5.75;100.00
7990;BME280;4040;42.848;23.034;2022-10-16T22:37:46;96172.63;;;5.68;100.00
7990;BME280;4040;42.848;23.034;2022-10-16T22:43:37;96187.53;;;5.57;100.00
7990;BME280;4040;42.848;23.034;2022-10-16T22:49:27;96184.63;;;5.62;100.00
7990;BME280;4040;42.848;23.034;2022-10-16T22:55:16;96189.66;;;5.52;100.00
7990;BME280;4040;42.848;23.034;2022-10-16T23:01:11;96193.31;;;5.47;100.00
7990;BME280;4040;42.848;23.034;2022-10-16T23:07:20;96187.31;;;5.26;100.00
7990;BME280;4040;42.848;23.034;2022-10-16T23:13:09;96191.00;;;5.22;100.00
7990;BME280;4040;42.848;23.034;2022-10-16T23:19:00;96196.88;;;5.15;100.00
7990;BME280;4040;42.848;23.034;2022-10-16T23:24:48;96184.53;;;4.99;100.00
7990;BME280;4040;42.848;23.034;2022-10-16T23:30:37;96194.88;;;5.00;100.00
7990;BME280;4040;42.848;23.034;2022-10-16T23:36:28;96195.13;;;5.07;100.00
7990;BME280;4040;42.848;23.034;2022-10-16T23:42:16;96192.22;;;5.12;100.00
7990;BME280;4040;42.848;23.034;2022-10-16T23:48:05;96175.41;;;5.00;100.00
7990;BME280;4040;42.848;23.034;2022-10-16T23:53:55;96206.53;;;4.96;100.00
7990;BME280;4040;42.848;23.034;2022-10-16T23:59:44;96207.75;;;4.87;100.00
